Time;durP1;ratioP1;P1;durP2;ratioP2;P2;SDS_P1;SDS_P2;PMS_P1;PMS_P2;Temp;Humidity;BMP_temperature;BMP_pressure;BME280_temperature;BME280_humidity;BME280_pressure;Samples;Min_cycle;Max_cycle;Signal;HPM_P1;HPM_P2
2021/06/27 00:02:02;;;;;;;11.40;10.30;;;20.30;98.60;;;;;;4754669;30;19948;-87
2021/06/27 00:05:05;;;;;;;12.05;10.82;;;20.30;98.80;;;;;;4739654;30;20494;-88
2021/06/27 00:07:56;;;;;;;;;;;;;;;;;;;;;
2021/06/27 00:10:51;;;;;;;12.23;10.98;;;20.20;99.10;;;;;;4732593;30;20386;-88
2021/06/27 00:13:33;;;;;;;13.95;11.90;;;20.20;99.20;;;;;;4741306;30;20112;-89
2021/06/27 00:16:07;;;;;;;13.77;12.13;;;20.20;99.30;;;;;;4732539;30;20102;-87
2021/06/27 00:18:46;;;;;;;;;;;;;;;;;;;;;
2021/06/27 00:21:21;;;;;;;11.85;10.65;;;20.20;99.50;;;;;;4732720;30;20683;-88
2021/06/27 00:24:31;;;;;;;14.05;12.40;;;20.10;99.60;;;;;;4732352;30;20091;-87
2021/06/27 00:27:13;;;;;;;;;;;;;;;;;;;;;
2021/06/27 00:30:20;;;;;;;;;;;;;;;;;;;;;
2021/06/27 00:33:03;;;;;;;;;;;;;;;;;;;;;
2021/06/27 00:35:30;;;;;;;11.40;10.00;;;20.00;99.90;;;;;;4738955;30;20417;-88
2021/06/27 00:38:15;;;;;;;;;;;;;;;;;;;;;
2021/06/27 00:40:41;;;;;;;11.95;10.73;;;20.00;99.90;;;;;;4718045;30;20394;-89
2021/06/27 00:43:13;;;;;;;11.95;10.65;;;20.10;99.90;;;;;;4731938;30;20110;-88
2021/06/27 00:45:39;;;;;;;13.52;10.88;;;20.10;99.90;;;;;;4732433;30;20037;-89
2021/06/27 00:48:07;;;;;;;12.60;10.57;;;20.00;99.90;;;;;;4716476;30;20098;-89
2021/06/27 00:50:43;;;;;;;13.70;11.35;;;20.00;99.90;;;;;;4716216;30;20032;-89
2021/06/27 00:53:20;;;;;;;12.32;10.93;;;20.00;99.90;;;;;;4720110;30;20098;-89
2021/06/27 01:02:30;;;;;;;13.48;12.02;;;20.00;99.90;;;;;;4735434;30;20071;-89
2021/06/27 01:04:59;;;;;;;13.70;11.93;;;19.90;99.90;;;;;;4720254;30;20040;-89
2021/06/27 01:07:32;;;;;;;13.70;11.48;;;19.90;99.90;;;;;;4736225;30;20037;-89
2021/06/27 01:10:03;;;;;;;15.38;13.00;;;19.90;99.90;;;;;;4720481;30;20041;-90
2021/06/27 01:12:39;;;;;;;;;;;;;;;;;;;;;
2021/06/27 01:15:32;;;;;;;13.13;11.75;;;19.90;99.90;;;;;;4734037;30;20041;-87
2021/06/27 01:18:25;;;;;;;14.20;12.70;;;19.90;99.90;;;;;;4733698;30;20185;-89
2021/06/27 01:20:56;;;;;;;13.77;11.98;;;19.80;99.90;;;;;;4732598;30;20033;-87
2021/06/27 01:23:46;;;;;;;13.50;11.57;;;19.80;99.90;;;;;;4734314;30;20528;-87
2021/06/27 01:26:17;;;;;;;14.90;12.73;;;19.80;99.90;;;;;;4734585;30;20049;-88
2021/06/27 01:31:49;;;;;;;16.13;13.68;;;19.70;99.90;;;;;;4710055;30;20040;-89
2021/06/27 01:34:53;;;;;;;;;;;;;;;;;;;;;
2021/06/27 01:37:27;;;;;;;16.98;14.73;;;19.60;99.90;;;;;;4731401;30;20134;-87
2021/06/27 01:40:02;;;;;;;16.25;14.50;;;19.60;99.90;;;;;;4713232;30;20056;-89
2021/06/27 01:42:36;;;;;;;15.65;13.88;;;19.60;99.90;;;;;;4704265;30;20126;-88
2021/06/27 01:45:37;;;;;;;16.25;13.13;;;19.50;99.90;;;;;;4717999;30;20490;-88
2021/06/27 01:48:15;;;;;;;17.10;14.60;;;19.60;99.90;;;;;;4725546;30;20024;-88
2021/06/27 01:50:44;;;;;;;20.85;16.65;;;19.50;99.90;;;;;;4748385;30;20024;-88
2021/06/27 01:53:14;;;;;;;16.70;14.70;;;19.50;99.90;;;;;;4757904;30;20029;-87
2021/06/27 01:55:56;;;;;;;18.92;14.75;;;19.50;99.90;;;;;;4728047;30;20031;-88
2021/06/27 01:59:05;;;;;;;;;;;;;;;;;;;;;
2021/06/27 02:01:53;;;;;;;;;;;;;;;;;;;;;
2021/06/27 02:04:36;;;;;;;15.85;13.45;;;19.40;99.90;;;;;;4735679;30;20033;-88
2021/06/27 02:07:42;;;;;;;16.25;14.30;;;19.40;99.90;;;;;;4733557;30;20507;-88
2021/06/27 02:10:31;;;;;;;18.70;15.60;;;19.30;99.90;;;;;;4718899;30;20025;-88
2021/06/27 02:13:10;;;;;;;19.75;16.15;;;19.30;99.90;;;;;;4708473;30;20040;-88
2021/06/27 02:16:08;;;;;;;;;;;;;;;;;;;;;
2021/06/27 02:18:53;;;;;;;19.20;16.90;;;19.30;99.90;;;;;;4739019;30;20032;-88
2021/06/27 02:21:28;;;;;;;20.27;17.38;;;19.30;99.90;;;;;;4721698;30;20399;-87
2021/06/27 02:24:00;;;;;;;19.60;17.35;;;19.20;99.90;;;;;;4729724;30;20060;-88
2021/06/27 02:27:02;;;;;;;;;;;;;;;;;;;;;
2021/06/27 02:30:10;;;;;;;;;;;;;;;;;;;;;
2021/06/27 02:32:47;;;;;;;20.67;17.48;;;19.10;99.90;;;;;;4738699;30;20025;-88
2021/06/27 02:38:17;;;;;;;20.23;17.48;;;19.10;99.90;;;;;;4737518;30;20047;-87
2021/06/27 02:40:58;;;;;;;21.00;17.83;;;19.00;99.90;;;;;;4737633;30;20041;-88
2021/06/27 02:43:26;;;;;;;20.35;17.88;;;19.00;99.90;;;;;;4737740;30;20040;-87
2021/06/27 02:45:59;;;;;;;23.13;19.42;;;19.00;99.90;;;;;;4738563;30;20045;-89
2021/06/27 02:48:38;;;;;;;;;;;;;;;;;;;;;
2021/06/27 02:51:25;;;;;;;21.50;17.23;;;18.90;99.90;;;;;;4737805;30;19915;-88
2021/06/27 02:54:02;;;;;;;20.95;17.42;;;18.90;99.90;;;;;;4735987;30;20537;-88
2021/06/27 02:56:30;;;;;;;20.13;16.65;;;18.90;99.90;;;;;;4737997;30;20123;-88
2021/06/27 02:59:01;;;;;;;19.65;16.52;;;18.80;99.90;;;;;;4737590;30;20028;-88
2021/06/27 03:01:37;;;;;;;17.88;15.73;;;18.80;99.90;;;;;;4738337;30;20043;-87
2021/06/27 03:04:31;;;;;;;20.58;18.10;;;18.80;99.90;;;;;;4736891;30;20040;-87
2021/06/27 03:07:10;;;;;;;21.40;19.02;;;18.80;99.90;;;;;;4723585;30;20435;-87
2021/06/27 03:09:45;;;;;;;21.15;17.38;;;18.80;99.90;;;;;;4736493;30;20037;-87
2021/06/27 03:12:39;;;;;;;21.20;17.95;;;18.80;99.90;;;;;;4737771;30;20382;-87
2021/06/27 03:15:10;;;;;;;19.25;16.33;;;18.80;99.90;;;;;;4736345;30;20044;-87
2021/06/27 03:17:47;;;;;;;19.45;17.23;;;18.70;99.90;;;;;;4736420;30;20036;-88
2021/06/27 03:20:16;;;;;;;19.67;17.00;;;18.70;99.90;;;;;;4721774;30;20110;-87
2021/06/27 03:23:13;;;;;;;20.42;17.90;;;18.70;99.90;;;;;;4737443;30;20132;-87
2021/06/27 03:25:41;;;;;;;20.50;17.40;;;18.70;99.90;;;;;;4736955;30;20039;-87
2021/06/27 03:28:09;;;;;;;24.48;19.08;;;18.60;99.90;;;;;;4733668;30;20041;-89
2021/06/27 03:30:47;;;;;;;20.33;17.33;;;18.60;99.90;;;;;;4721231;30;20455;-86
2021/06/27 03:33:30;;;;;;;19.25;16.38;;;18.60;99.90;;;;;;4721856;30;20043;-87
2021/06/27 03:35:58;;;;;;;;;;;18.60;99.90;;;;;;4738221;30;20040;-87
2021/06/27 03:38:45;;;;;;;20.35;16.48;;;18.60;99.90;;;;;;4747735;30;19910;-88
2021/06/27 03:41:33;;;;;;;19.73;17.55;;;18.50;99.90;;;;;;4742727;30;20033;-86
2021/06/27 03:44:16;;;;;;;;;;;;;;;;;;;;;
2021/06/27 03:46:47;;;;;;;22.08;17.77;;;18.60;99.90;;;;;;4738326;30;20032;-87
2021/06/27 03:49:16;;;;;;;22.60;19.15;;;18.60;99.90;;;;;;4726611;30;20029;-87
2021/06/27 03:51:54;;;;;;;22.73;19.25;;;18.60;99.90;;;;;;4734172;30;20036;-87
2021/06/27 03:54:34;;;;;;;20.85;18.10;;;18.60;99.90;;;;;;4732156;30;20048;-87
2021/06/27 03:57:02;;;;;;;22.50;18.65;;;18.60;99.90;;;;;;4737475;30;20487;-88
2021/06/27 03:59:45;;;;;;;21.75;17.30;;;18.50;99.90;;;;;;4736625;30;20059;-87
2021/06/27 04:02:15;;;;;;;21.20;17.15;;;18.50;99.90;;;;;;4721145;30;20040;-88
2021/06/27 04:05:09;;;;;;;;;;;;;;;;;;;;;
2021/06/27 04:07:53;;;;;;;21.48;17.42;;;18.60;99.90;;;;;;4737173;30;20032;-86
2021/06/27 04:11:00;;;;;;;;;;;;;;;;;;;;;
2021/06/27 04:17:59;;;;;;;;;;;;;;;;;;;;;
2021/06/27 04:21:18;;;;;;;;;;;;;;;;;;;;;
2021/06/27 04:24:31;;;;;;;;;;;;;;;;;;;;;
2021/06/27 04:27:47;;;;;;;19.77;16.80;;;19.00;99.90;;;;;;4697183;30;20052;-88
2021/06/27 04:37:31;;;;;;;21.33;17.60;;;19.20;99.90;;;;;;4727171;30;20057;-89
2021/06/27 04:40:26;;;;;;;20.77;18.30;;;19.30;99.90;;;;;;4742197;30;20079;-89
2021/06/27 04:43:40;;;;;;;;;;;;;;;;;;;;;
2021/06/27 04:46:40;;;;;;;;;;;19.40;99.90;;;;;;4736442;30;20031;-89
2021/06/27 04:49:47;;;;;;;;;;;;;;;;;;;;;
2021/06/27 04:52:39;;;;;;;16.75;14.50;;;19.50;99.90;;;;;;4720366;30;20045;-88
2021/06/27 04:59:33;;;;;;;;;;;;;;;;;;;;;
2021/06/27 05:03:07;;;;;;;;;;;;;;;;;;;;;
2021/06/27 05:09:17;;;;;;;17.40;14.45;;;19.80;99.90;;;;;;4718651;30;20051;-88
2021/06/27 05:12:21;;;;;;;;;;;;;;;;;;;;;
2021/06/27 05:28:57;;;;;;;17.70;14.27;;;19.90;99.90;;;;;;4707389;30;20052;-89
2021/06/27 05:36:40;;;;;;;;;;;;;;;;;;;;;
2021/06/27 05:56:26;;;;;;;;;;;;;;;;;;;;;
2021/06/27 05:59:53;;;;;;;;;;;;;;;;;;;;;
2021/06/27 06:06:21;;;;;;;;;;;;;;;;;;;;;
2021/06/27 06:09:26;;;;;;;;;;;;;;;;;;;;;
2021/06/27 06:13:13;;;;;;;;;;;;;;;;;;;;;
2021/06/27 06:16:44;;;;;;;;;;;;;;;;;;;;;
2021/06/27 06:19:54;;;;;;;;;;;;;;;;;;;;;
2021/06/27 06:43:27;;;;;;;;;;;;;;;;;;;;;
2021/06/27 07:01:29;;;;;;;;;;;;;;;;;;;;;
2021/06/27 07:11:00;;;;;;;16.27;14.43;;;21.80;99.90;;;;;;4515191;31;20043;-89
2021/06/27 07:14:22;;;;;;;;;;;;;;;;;;;;;
2021/06/27 07:17:35;;;;;;;;;;;;;;;;;;;;;
2021/06/27 07:24:41;;;;;;;;;;;;;;;;;;;;;
2021/06/27 07:31:53;;;;;;;;;;;;;;;;;;;;;
2021/06/27 07:34:53;;;;;;;;;;;;;;;;;;;;;
2021/06/27 07:45:29;;;;;;;;;;;;;;;;;;;;;
2021/06/27 07:52:56;;;;;;;;;;;;;;;;;;;;;
2021/06/27 07:59:24;;;;;;;;;;;;;;;;;;;;;
2021/06/27 08:02:47;;;;;;;;;;;;;;;;;;;;;
2021/06/27 08:06:27;;;;;;;;;;;;;;;;;;;;;
2021/06/27 08:15:56;;;;;;;;;;;;;;;;;;;;;
2021/06/27 08:19:08;;;;;;;;;;;;;;;;;;;;;
2021/06/27 08:25:38;;;;;;;;;;;;;;;;;;;;;
2021/06/27 08:29:20;;;;;;;;;;;;;;;;;;;;;
2021/06/27 08:32:34;;;;;;;;;;;;;;;;;;;;;
2021/06/27 08:43:35;;;;;;;;;;;;;;;;;;;;;
2021/06/27 08:46:46;;;;;;;;;;;;;;;;;;;;;
2021/06/27 08:57:43;;;;;;;;;;;;;;;;;;;;;
2021/06/27 09:13:01;;;;;;;;;;;;;;;;;;;;;
2021/06/27 10:18:44;;;;;;;;;;;;;;;;;;;;;
2021/06/27 10:30:07;;;;;;;;;;;;;;;;;;;;;
2021/06/27 11:04:50;;;;;;;6.80;5.95;;;28.40;93.60;;;;;;6092430;22;4534939;-89
2021/06/27 11:07:43;;;;;;;5.68;5.07;;;29.10;92.80;;;;;;6242831;22;20016;-88
2021/06/27 11:10:18;;;;;;;5.68;4.90;;;29.20;92.50;;;;;;6269547;22;20004;-91
2021/06/27 11:13:19;;;;;;;5.57;4.97;;;29.50;92.40;;;;;;6262888;22;20084;-91
2021/06/27 11:16:48;;;;;;;;;;;;;;;;;;;;;
2021/06/27 11:21:53;;;;;;;5.55;5.05;;;30.50;90.90;;;;;;6261752;22;20028;-90
2021/06/27 11:32:39;;;;;;;5.93;5.32;;;31.30;89.20;;;;;;6234801;23;20354;-89
2021/06/27 11:35:36;;;;;;;5.80;5.20;;;31.40;88.90;;;;;;6198402;23;20027;-88
2021/06/27 11:38:51;;;;;;;5.40;4.90;;;31.70;87.10;;;;;;6202883;23;20008;-90
2021/06/27 11:44:13;;;;;;;4.70;4.10;;;31.70;87.00;;;;;;6229183;23;20015;-92
2021/06/27 11:46:45;;;;;;;6.18;4.75;;;31.80;86.70;;;;;;6201751;23;20004;-92
2021/06/27 11:49:35;;;;;;;;;;;;;;;;;;;;;
2021/06/27 12:05:19;;;;;;;4.57;4.07;;;33.20;79.80;;;;;;6258053;22;20063;-88
2021/06/27 12:08:38;;;;;;;3.90;3.50;;;33.30;78.10;;;;;;6237277;23;20031;-89
2021/06/27 12:11:41;;;;;;;4.00;3.45;;;33.50;77.70;;;;;;6260030;23;20291;-87
2021/06/27 12:17:53;;;;;;;3.95;3.50;;;33.90;76.30;;;;;;6244143;23;20106;-91
2021/06/27 12:20:33;;;;;;;3.88;3.47;;;34.10;75.20;;;;;;6230341;23;19996;-89
2021/06/27 12:23:09;;;;;;;3.72;3.30;;;34.40;73.80;;;;;;6258991;23;20016;-87
2021/06/27 12:25:37;;;;;;;3.35;3.05;;;34.80;73.40;;;;;;6200343;23;20092;-92
2021/06/27 12:28:33;;;;;;;3.88;3.25;;;35.10;71.70;;;;;;6224779;23;20007;-94
2021/06/27 12:31:12;;;;;;;3.97;3.00;;;35.50;70.40;;;;;;6253128;23;20011;-91
2021/06/27 12:33:41;;;;;;;3.47;3.15;;;35.80;70.30;;;;;;6224737;23;20019;-90
2021/06/27 12:36:15;;;;;;;3.58;3.20;;;36.00;69.40;;;;;;6227595;23;20434;-90
2021/06/27 12:38:47;;;;;;;4.55;3.72;;;36.40;67.80;;;;;;6223686;23;20500;-92
2021/06/27 12:41:35;;;;;;;3.58;3.28;;;36.60;67.20;;;;;;6225620;23;20054;-92
2021/06/27 12:52:47;;;;;;;4.10;3.40;;;36.50;65.70;;;;;;6170212;23;20032;-92
2021/06/27 12:55:15;;;;;;;3.42;3.10;;;36.60;64.80;;;;;;6182128;23;20005;-90
2021/06/27 12:57:54;;;;;;;5.82;2.78;;;36.70;64.30;;;;;;6182767;23;20001;-92
2021/06/27 13:00:40;;;;;;;3.40;3.10;;;36.90;64.00;;;;;;6186537;23;20001;-92
2021/06/27 13:03:18;;;;;;;3.67;2.80;;;37.00;63.70;;;;;;6168415;23;20021;-88
2021/06/27 13:06:01;;;;;;;3.63;3.00;;;37.40;63.20;;;;;;6185277;23;20037;-91
2021/06/27 13:08:27;;;;;;;3.97;2.53;;;37.30;62.40;;;;;;6183836;23;20013;-91
2021/06/27 13:11:07;;;;;;;3.10;2.80;;;36.90;62.50;;;;;;6183876;23;20084;-90
2021/06/27 13:13:32;;;;;;;3.00;2.63;;;36.70;62.60;;;;;;6183786;23;20045;-91
2021/06/27 13:16:13;;;;;;;3.22;2.80;;;36.70;63.00;;;;;;6183203;23;20416;-91
2021/06/27 13:18:39;;;;;;;3.67;3.00;;;36.80;62.80;;;;;;6183634;23;20833;-89
2021/06/27 13:21:05;;;;;;;3.97;3.20;;;36.70;62.70;;;;;;6185125;23;20025;-90
2021/06/27 13:23:31;;;;;;;3.65;2.97;;;36.60;61.00;;;;;;6185469;23;20230;-90
2021/06/27 13:26:17;;;;;;;3.38;3.08;;;36.70;60.70;;;;;;6183535;23;20005;-90
2021/06/27 13:28:44;;;;;;;3.00;2.70;;;36.80;60.90;;;;;;6183395;23;20029;-91
2021/06/27 13:31:10;;;;;;;3.65;2.88;;;37.00;60.90;;;;;;6184236;23;20009;-91
2021/06/27 13:33:39;;;;;;;3.92;3.20;;;37.10;60.80;;;;;;6186766;23;20080;-91
2021/06/27 13:36:11;;;;;;;2.95;2.72;;;37.20;60.20;;;;;;6184223;23;20005;-92
2021/06/27 13:38:40;;;;;;;3.28;2.97;;;37.20;60.30;;;;;;6185971;23;20013;-90
2021/06/27 13:41:07;;;;;;;2.80;2.60;;;37.20;60.40;;;;;;6183807;23;20067;-92
2021/06/27 13:43:34;;;;;;;2.95;2.67;;;37.40;60.60;;;;;;6184370;23;20005;-90
2021/06/27 13:46:07;;;;;;;3.45;2.60;;;37.40;60.70;;;;;;6184023;23;20044;-92
2021/06/27 13:48:32;;;;;;;6.30;2.65;;;37.50;59.80;;;;;;6183846;23;20088;-92
2021/06/27 13:50:58;;;;;;;3.00;2.63;;;37.60;59.70;;;;;;6181865;23;20406;-91
2021/06/27 13:53:24;;;;;;;2.80;2.50;;;37.70;59.80;;;;;;6182585;23;20092;-92
2021/06/27 13:55:49;;;;;;;2.78;2.53;;;37.80;59.50;;;;;;6182708;23;20325;-91
2021/06/27 13:58:15;;;;;;;4.30;2.60;;;37.90;59.40;;;;;;6183931;23;20039;-92
2021/06/27 14:00:42;;;;;;;2.95;2.65;;;37.90;58.30;;;;;;6184097;23;19997;-91
2021/06/27 14:03:07;;;;;;;2.75;2.55;;;37.60;57.60;;;;;;6182766;23;20471;-90
2021/06/27 14:05:33;;;;;;;3.33;2.58;;;37.50;58.10;;;;;;6181744;23;20012;-89
2021/06/27 14:08:01;;;;;;;2.75;2.55;;;37.50;58.80;;;;;;6182638;23;19997;-92
2021/06/27 14:10:27;;;;;;;2.88;2.58;;;37.50;58.30;;;;;;6183239;23;20321;-91
2021/06/27 14:12:54;;;;;;;3.00;2.70;;;37.60;57.90;;;;;;6183867;23;20067;-90
2021/06/27 14:19:03;;;;;;;3.72;3.03;;;37.90;57.70;;;;;;6162009;23;20028;-91
2021/06/27 14:21:30;;;;;;;3.10;2.80;;;37.50;57.30;;;;;;6179094;23;20133;-88
2021/06/27 14:23:55;;;;;;;3.08;2.58;;;36.80;57.70;;;;;;6171714;23;20028;-89
2021/06/27 14:26:21;;;;;;;3.15;2.85;;;36.10;58.50;;;;;;6181224;23;20001;-90
2021/06/27 14:28:46;;;;;;;3.50;3.00;;;35.90;59.00;;;;;;6183301;23;20008;-88
2021/06/27 14:31:13;;;;;;;2.70;2.50;;;36.20;58.90;;;;;;6181681;23;20012;-91
2021/06/27 14:33:39;;;;;;;3.78;2.50;;;36.50;59.10;;;;;;6182955;23;20017;-89
2021/06/27 14:36:06;;;;;;;3.08;2.78;;;36.60;58.50;;;;;;6184143;23;20052;-90
2021/06/27 14:38:34;;;;;;;4.22;2.97;;;36.70;59.10;;;;;;6181429;23;20001;-90
2021/06/27 14:41:02;;;;;;;3.70;2.88;;;36.70;58.50;;;;;;6182437;23;20082;-90
2021/06/27 14:43:32;;;;;;;2.92;2.45;;;36.80;59.10;;;;;;6182493;23;20009;-90
2021/06/27 14:46:19;;;;;;;3.50;2.85;;;36.90;58.50;;;;;;6182958;23;20028;-91
2021/06/27 14:48:45;;;;;;;2.92;2.70;;;36.90;58.80;;;;;;6185215;23;20005;-90
2021/06/27 14:51:14;;;;;;;3.38;2.63;;;36.80;58.90;;;;;;6189655;23;20005;-91
2021/06/27 14:53:41;;;;;;;3.67;3.15;;;36.80;58.40;;;;;;6186726;23;20013;-92
2021/06/27 14:56:25;;;;;;;2.90;2.58;;;36.70;58.20;;;;;;6184992;23;19997;-91
2021/06/27 14:58:50;;;;;;;3.15;2.85;;;36.80;58.30;;;;;;6184549;23;20011;-93
2021/06/27 15:01:16;;;;;;;4.60;3.00;;;36.50;57.60;;;;;;6186421;23;20033;-92
2021/06/27 15:03:52;;;;;;;3.47;3.17;;;36.20;57.10;;;;;;6185296;23;20463;-93
2021/06/27 15:06:21;;;;;;;3.40;3.10;;;36.20;57.60;;;;;;6186948;23;20008;-93
2021/06/27 15:14:03;;;;;;;4.43;3.00;;;35.70;57.90;;;;;;6234752;23;20024;-93
2021/06/27 15:16:28;;;;;;;3.03;2.67;;;35.20;58.20;;;;;;6221177;23;20000;-93
2021/06/27 15:18:57;;;;;;;3.28;2.83;;;34.70;58.50;;;;;;6196444;23;20019;-94
2021/06/27 15:21:23;;;;;;;3.15;2.85;;;34.40;59.40;;;;;;6221575;23;20000;-93
2021/06/27 15:44:33;;;;;;;3.30;2.97;;;32.00;63.70;;;;;;6245267;22;20024;-90
2021/06/27 15:46:59;;;;;;;4.18;3.08;;;31.90;64.20;;;;;;6230087;23;20007;-90
2021/06/27 15:50:00;;;;;;;3.50;3.13;;;31.70;64.00;;;;;;6234253;23;20000;-88
2021/06/27 17:06:03;;;;;;;7.07;4.10;;;27.80;71.00;;;;;;6237361;22;20028;-90
2021/06/27 17:09:08;;;;;;;6.70;3.38;;;26.80;73.60;;;;;;6222710;23;20008;-90
2021/06/27 17:11:48;;;;;;;;;;;;;;;;;;;;;
2021/06/27 17:15:26;;;;;;;4.15;3.22;;;25.70;77.60;;;;;;6229112;23;20079;-90
2021/06/27 17:17:35;;;;;;;7.00;2.78;;;25.00;81.30;;;;;;6235725;23;20432;-90
2021/06/27 17:20:27;;;;;;;4.00;2.70;;;23.80;90.00;;;;;;6249398;23;20035;-89
2021/06/27 17:23:04;;;;;;;5.20;2.75;;;22.70;93.00;;;;;;6226279;23;20004;-86
2021/06/27 17:26:35;;;;;;;;;;;;;;;;;;;;;
2021/06/27 17:29:40;;;;;;;;;;;;;;;;;;;;;
2021/06/27 17:56:28;;;;;;;7.03;4.95;;;19.50;99.90;;;;;;5829925;24;20037;-87
2021/06/27 18:02:50;;;;;;;8.25;5.97;;;19.70;99.90;;;;;;6244958;23;20093;-87
2021/06/27 18:05:43;;;;;;;8.20;6.35;;;19.70;99.90;;;;;;6225748;23;20008;-89
2021/06/27 18:08:17;;;;;;;8.57;7.37;;;19.60;99.90;;;;;;6257161;22;20120;-89
2021/06/27 18:13:49;;;;;;;7.45;6.65;;;19.60;99.90;;;;;;6207987;23;20067;-88
2021/06/27 18:16:25;;;;;;;8.93;7.70;;;19.60;99.90;;;;;;6218231;23;20015;-89
2021/06/27 18:18:54;;;;;;;9.95;8.23;;;19.60;99.90;;;;;;6218697;23;20034;-90
2021/06/27 18:21:40;;;;;;;;;;;;;;;;;;;;;
2021/06/27 18:24:40;;;;;;;;;;;;;;;;;;;;;
2021/06/27 18:26:55;;;;;;;7.97;7.07;;;19.60;99.90;;;;;;6238588;23;20008;-88
2021/06/27 18:29:38;;;;;;;8.57;7.25;;;19.60;99.90;;;;;;6244357;23;20031;-88
2021/06/27 18:32:06;;;;;;;8.40;7.50;;;19.70;99.90;;;;;;6214432;23;20007;-89
2021/06/27 18:34:32;;;;;;;9.38;8.32;;;19.70;99.90;;;;;;6217743;23;20012;-88
2021/06/27 18:36:58;;;;;;;8.30;7.28;;;19.70;99.90;;;;;;6189279;23;20000;-88
2021/06/27 18:39:23;;;;;;;8.50;7.53;;;19.70;99.90;;;;;;6217412;23;20012;-88
2021/06/27 18:42:10;;;;;;;8.75;6.97;;;19.70;99.90;;;;;;6244409;23;20000;-88
2021/06/27 18:44:59;;;;;;;8.95;7.57;;;19.80;99.90;;;;;;6241032;23;20020;-88
2021/06/27 18:47:48;;;;;;;8.50;6.47;;;19.80;99.90;;;;;;6216942;23;20012;-87
2021/06/27 18:50:24;;;;;;;;;;;;;;;;;;;;;
2021/06/27 18:52:55;;;;;;;8.90;6.72;;;20.00;99.90;;;;;;6219435;23;20083;-86
2021/06/27 18:55:21;;;;;;;9.82;7.45;;;20.00;99.90;;;;;;6217443;23;20034;-86
2021/06/27 18:57:47;;;;;;;7.65;6.65;;;20.10;99.90;;;;;;6217617;23;20000;-86
2021/06/27 19:00:25;;;;;;;8.32;6.95;;;20.10;99.90;;;;;;6216881;23;20075;-87
2021/06/27 19:02:54;;;;;;;8.15;7.07;;;20.10;99.90;;;;;;6217361;23;20007;-87
2021/06/27 19:05:33;;;;;;;9.15;7.13;;;20.10;99.90;;;;;;6216487;23;20012;-85
2021/06/27 19:07:59;;;;;;;8.57;6.95;;;20.10;99.90;;;;;;6218044;23;20027;-86
2021/06/27 19:10:40;;;;;;;9.27;7.13;;;20.10;99.90;;;;;;6238466;23;19996;-86
2021/06/27 19:13:16;;;;;;;9.02;7.00;;;20.10;99.90;;;;;;6249738;23;19996;-86
2021/06/27 19:15:50;;;;;;;7.88;6.50;;;20.10;99.90;;;;;;6244466;23;20298;-87
2021/06/27 19:19:01;;;;;;;7.55;6.57;;;20.20;99.90;;;;;;6243114;23;20079;-86
2021/06/27 19:21:51;;;;;;;7.25;6.50;;;20.10;99.90;;;;;;6242180;23;20023;-87
2021/06/27 19:24:18;;;;;;;8.52;6.25;;;20.10;99.90;;;;;;6216515;23;20012;-87
2021/06/27 19:26:48;;;;;;;6.93;6.07;;;20.00;99.90;;;;;;6239612;23;20011;-87
2021/06/27 19:29:18;;;;;;;9.27;6.93;;;20.00;99.90;;;;;;6216206;23;20092;-86
2021/06/27 19:31:43;;;;;;;8.13;6.05;;;20.00;99.90;;;;;;6215412;23;20035;-86
2021/06/27 19:34:10;;;;;;;7.35;5.70;;;20.00;99.90;;;;;;6216985;23;20444;-86
2021/06/27 19:36:36;;;;;;;8.15;6.28;;;20.00;99.90;;;;;;6216290;23;20113;-85
2021/06/27 19:39:05;;;;;;;7.57;5.88;;;20.00;99.90;;;;;;6192179;23;20520;-85
2021/06/27 19:41:35;;;;;;;6.93;6.15;;;20.00;99.90;;;;;;6242953;23;20000;-85
2021/06/27 19:44:10;;;;;;;7.80;6.03;;;19.90;99.90;;;;;;6216997;23;20099;-85
2021/06/27 19:46:39;;;;;;;6.63;5.70;;;19.90;99.90;;;;;;6244215;23;20000;-85
2021/06/27 19:49:05;;;;;;;7.40;6.38;;;19.80;99.90;;;;;;6243740;23;19999;-85
2021/06/27 19:51:31;;;;;;;7.45;6.47;;;19.70;99.90;;;;;;6241331;23;20072;-85
2021/06/27 19:53:56;;;;;;;7.13;6.10;;;19.60;99.90;;;;;;6244220;23;20417;-85
2021/06/27 19:56:26;;;;;;;7.32;5.82;;;19.60;99.90;;;;;;6241093;22;19992;-85
2021/06/27 19:58:55;;;;;;;7.78;6.35;;;19.50;99.90;;;;;;6245397;23;20003;-86
2021/06/27 20:01:25;;;;;;;7.40;6.20;;;19.40;99.90;;;;;;6220631;23;20306;-85
2021/06/27 20:04:00;;;;;;;;;;;;;;;;;;;;;
2021/06/27 20:06:29;;;;;;;7.38;5.72;;;19.20;99.90;;;;;;6247030;23;20067;-85
2021/06/27 20:08:55;;;;;;;5.82;4.80;;;19.20;99.90;;;;;;6192619;23;20008;-85
2021/06/27 20:11:34;;;;;;;;;;;;;;;;;;;;;
2021/06/27 20:14:41;;;;;;;;;;;;;;;;;;;;;
2021/06/27 20:17:10;;;;;;;6.15;4.53;;;19.30;99.90;;;;;;6241295;23;20059;-85
2021/06/27 20:19:40;;;;;;;4.82;4.30;;;19.20;99.90;;;;;;6216543;23;20004;-85
2021/06/27 20:22:09;;;;;;;4.97;4.45;;;19.20;99.90;;;;;;6240867;23;20012;-85
2021/06/27 20:25:40;;;;;;;;;;;;;;;;;;;;;
2021/06/27 20:27:56;;;;;;;5.40;4.13;;;19.20;99.90;;;;;;6231391;23;20008;-84
2021/06/27 20:30:22;;;;;;;5.47;4.28;;;19.20;99.90;;;;;;6242987;23;20500;-84
2021/06/27 20:32:50;;;;;;;5.72;4.07;;;19.20;99.90;;;;;;6215932;23;20012;-84
2021/06/27 20:35:20;;;;;;;5.05;4.25;;;19.20;99.90;;;;;;6243548;23;20008;-84
2021/06/27 20:37:51;;;;;;;5.43;4.55;;;19.20;99.90;;;;;;6194444;23;20014;-84
2021/06/27 20:40:17;;;;;;;4.72;3.88;;;19.20;99.90;;;;;;6192255;23;20064;-85
2021/06/27 20:42:44;;;;;;;4.95;4.05;;;19.10;99.90;;;;;;6239138;23;20004;-85
2021/06/27 20:45:23;;;;;;;4.75;3.72;;;19.20;99.90;;;;;;6239816;23;20352;-84
2021/06/27 20:47:50;;;;;;;4.80;3.60;;;19.10;99.90;;;;;;6213309;23;20008;-85
2021/06/27 20:50:25;;;;;;;5.15;3.78;;;19.20;99.90;;;;;;6213932;23;20008;-84
2021/06/27 20:52:55;;;;;;;4.60;3.72;;;19.20;99.90;;;;;;6213253;23;20062;-85
2021/06/27 20:55:24;;;;;;;4.90;3.72;;;19.20;99.90;;;;;;6213934;23;20000;-85
2021/06/27 20:57:54;;;;;;;5.32;4.00;;;19.20;99.90;;;;;;6213139;23;20039;-84
2021/06/27 21:00:23;;;;;;;5.10;4.10;;;19.20;99.90;;;;;;6213749;23;20102;-84
2021/06/27 21:02:52;;;;;;;5.45;4.05;;;19.20;99.90;;;;;;6239983;23;20009;-84
2021/06/27 21:05:30;;;;;;;5.15;3.92;;;19.20;99.90;;;;;;6212185;23;20123;-84
2021/06/27 21:07:59;;;;;;;5.13;4.00;;;19.20;99.90;;;;;;6215022;23;20062;-85
2021/06/27 21:10:24;;;;;;;4.85;3.85;;;19.20;99.90;;;;;;6240765;23;20008;-84
2021/06/27 21:12:53;;;;;;;4.43;3.75;;;19.10;99.90;;;;;;6215687;23;20000;-85
2021/06/27 21:15:19;;;;;;;4.40;3.65;;;19.20;99.90;;;;;;6242576;23;20020;-84
2021/06/27 21:17:45;;;;;;;5.00;3.95;;;19.20;99.90;;;;;;6240335;23;20010;-83
2021/06/27 21:20:15;;;;;;;5.47;3.78;;;19.20;99.90;;;;;;6239554;23;20035;-85
2021/06/27 21:22:42;;;;;;;4.20;3.67;;;19.20;99.90;;;;;;6213754;23;20008;-85
2021/06/27 21:25:11;;;;;;;4.97;3.72;;;19.20;99.90;;;;;;6240589;23;20000;-84
2021/06/27 21:27:41;;;;;;;4.55;3.58;;;19.20;99.90;;;;;;6239334;23;20004;-85
2021/06/27 21:30:09;;;;;;;5.70;4.32;;;19.30;99.90;;;;;;6208567;23;20012;-85
2021/06/27 21:32:35;;;;;;;5.55;4.00;;;19.30;99.90;;;;;;6215424;23;20008;-85
2021/06/27 21:35:04;;;;;;;4.50;3.67;;;19.30;99.90;;;;;;6241622;23;20004;-85
2021/06/27 21:37:31;;;;;;;5.65;4.38;;;19.30;99.90;;;;;;6242162;23;20010;-85
2021/06/27 21:39:59;;;;;;;4.88;4.03;;;19.30;99.90;;;;;;6215596;23;20039;-85
2021/06/27 21:42:27;;;;;;;4.32;3.83;;;19.30;99.90;;;;;;6245044;23;20079;-85
2021/06/27 21:44:53;;;;;;;5.55;4.25;;;19.30;99.90;;;;;;6252879;23;20003;-84
2021/06/27 21:47:20;;;;;;;4.22;3.80;;;19.30;99.90;;;;;;6238623;23;20004;-85
2021/06/27 21:49:46;;;;;;;4.55;3.80;;;19.20;99.90;;;;;;6264520;23;20004;-84
2021/06/27 21:52:11;;;;;;;4.35;3.55;;;19.30;99.90;;;;;;6223730;23;20030;-84
2021/06/27 21:54:38;;;;;;;4.55;3.80;;;19.20;99.90;;;;;;6221191;23;20009;-84
2021/06/27 21:57:05;;;;;;;4.13;3.58;;;19.20;99.90;;;;;;6248257;23;20027;-85
2021/06/27 21:59:31;;;;;;;3.85;3.38;;;19.20;99.90;;;;;;6221329;23;20008;-84
2021/06/27 22:02:04;;;;;;;4.15;3.40;;;19.10;99.90;;;;;;6246883;23;20023;-85
2021/06/27 22:04:30;;;;;;;4.25;3.33;;;19.20;99.90;;;;;;6220730;23;20008;-84
2021/06/27 22:06:58;;;;;;;4.15;3.60;;;19.10;99.90;;;;;;6246435;22;20479;-84
2021/06/27 22:09:29;;;;;;;3.92;3.53;;;19.10;99.90;;;;;;6221243;23;20000;-83
2021/06/27 22:11:55;;;;;;;4.22;3.45;;;19.20;99.90;;;;;;6220316;23;20038;-84
2021/06/27 22:14:23;;;;;;;4.35;3.72;;;19.10;99.90;;;;;;6246239;23;20048;-84
2021/06/27 22:16:49;;;;;;;4.70;3.80;;;19.10;99.90;;;;;;6221248;23;20008;-84
2021/06/27 22:19:15;;;;;;;4.75;3.60;;;19.10;99.90;;;;;;6247232;23;20058;-83
2021/06/27 22:21:41;;;;;;;4.15;3.28;;;19.20;99.90;;;;;;6220527;23;20008;-83
2021/06/27 22:24:10;;;;;;;4.15;3.30;;;19.10;99.90;;;;;;6220571;23;20065;-83
2021/06/27 22:26:35;;;;;;;4.05;3.03;;;19.20;99.90;;;;;;6246230;23;20083;-83
2021/06/27 22:29:04;;;;;;;3.95;3.22;;;19.10;99.90;;;;;;6220619;23;20039;-84
2021/06/27 22:31:31;;;;;;;5.03;3.65;;;19.20;99.90;;;;;;6245384;23;20016;-84
2021/06/27 22:33:59;;;;;;;5.07;3.70;;;19.20;99.90;;;;;;6220387;23;20429;-84
2021/06/27 22:36:24;;;;;;;4.30;3.35;;;19.20;99.90;;;;;;6220326;23;20004;-84
2021/06/27 22:38:50;;;;;;;4.65;3.70;;;19.20;99.90;;;;;;6219292;23;19996;-83
2021/06/27 22:41:18;;;;;;;4.75;3.80;;;19.20;99.90;;;;;;6219147;23;20000;-84
2021/06/27 22:43:46;;;;;;;5.30;4.22;;;19.10;99.90;;;;;;6219930;23;20012;-84